sensor_id;sensor_type;location;lat;lon;timestamp;pressure;altitude;pressure_sealevel;temperature;humidity
5522;BME280;2783;48.730;8.006;2023-08-12T00:01:22;100252.06;;;22.09;100.00
5522;BME280;2783;48.730;8.006;2023-08-12T00:03:50;100238.09;;;22.03;100.00
5522;BME280;2783;48.730;8.006;2023-08-12T00:06:15;100243.00;;;21.98;100.00
5522;BME280;2783;48.730;8.006;2023-08-12T00:08:41;100239.66;;;21.94;100.00
5522;BME280;2783;48.730;8.006;2023-08-12T00:11:06;100242.63;;;21.91;100.00
5522;BME280;2783;48.730;8.006;2023-08-12T00:13:31;100244.47;;;21.91;100.00
5522;BME280;2783;48.730;8.006;2023-08-12T00:15:57;100243.50;;;21.92;100.00
5522;BME280;2783;48.730;8.006;2023-08-12T00:18:23;100232.66;;;21.92;100.00
5522;BME280;2783;48.730;8.006;2023-08-12T00:20:48;100233.41;;;21.94;100.00
5522;BME280;2783;48.730;8.006;2023-08-12T00:23:14;100232.19;;;21.98;100.00
5522;BME280;2783;48.730;8.006;2023-08-12T00:25:39;100229.22;;;22.01;100.00
5522;BME280;2783;48.730;8.006;2023-08-12T00:28:05;100225.31;;;22.05;100.00
5522;BME280;2783;48.730;8.006;2023-08-12T00:30:30;100226.06;;;22.07;100.00
5522;BME280;2783;48.730;8.006;2023-08-12T00:32:55;100229.63;;;22.07;100.00
5522;BME280;2783;48.730;8.006;2023-08-12T00:35:21;100223.38;;;22.07;100.00
5522;BME280;2783;48.730;8.006;2023-08-12T00:37:46;100229.41;;;22.10;100.00
5522;BME280;2783;48.730;8.006;2023-08-12T00:40:12;100228.06;;;22.16;100.00
5522;BME280;2783;48.730;8.006;2023-08-12T00:42:38;100241.97;;;22.11;100.00
5522;BME280;2783;48.730;8.006;2023-08-12T00:45:09;100236.16;;;22.05;100.00
5522;BME280;2783;48.730;8.006;2023-08-12T00:47:34;100238.88;;;22.05;100.00
5522;BME280;2783;48.730;8.006;2023-08-12T00:50:00;100241.56;;;22.05;100.00
5522;BME280;2783;48.730;8.006;2023-08-12T00:52:26;100244.53;;;22.02;100.00
5522;BME280;2783;48.730;8.006;2023-08-12T00:54:52;100242.06;;;21.99;100.00
5522;BME280;2783;48.730;8.006;2023-08-12T00:57:17;100240.06;;;22.01;100.00
5522;BME280;2783;48.730;8.006;2023-08-12T00:59:44;100241.69;;;22.03;100.00
5522;BME280;2783;48.730;8.006;2023-08-12T01:02:11;100242.56;;;22.04;100.00
5522;BME280;2783;48.730;8.006;2023-08-12T01:04:37;100232.69;;;22.03;100.00
5522;BME280;2783;48.730;8.006;2023-08-12T01:07:02;100239.84;;;22.04;100.00
5522;BME280;2783;48.730;8.006;2023-08-12T01:09:29;100239.63;;;22.07;100.00
5522;BME280;2783;48.730;8.006;2023-08-12T01:12:03;100238.63;;;22.08;100.00
5522;BME280;2783;48.730;8.006;2023-08-12T01:14:35;100235.16;;;22.06;100.00
5522;BME280;2783;48.730;8.006;2023-08-12T01:17:06;100236.44;;;22.13;100.00
5522;BME280;2783;48.730;8.006;2023-08-12T01:19:37;100246.31;;;22.14;100.00
5522;BME280;2783;48.730;8.006;2023-08-12T01:22:05;100241.59;;;22.16;100.00
5522;BME280;2783;48.730;8.006;2023-08-12T01:24:42;100240.25;;;22.10;100.00
5522;BME280;2783;48.730;8.006;2023-08-12T01:27:10;100254.06;;;22.18;100.00
5522;BME280;2783;48.730;8.006;2023-08-12T01:29:39;100252.72;;;22.24;100.00
5522;BME280;2783;48.730;8.006;2023-08-12T01:34:47;100270.50;;;22.28;100.00
5522;BME280;2783;48.730;8.006;2023-08-12T01:37:23;100277.75;;;22.28;100.00
5522;BME280;2783;48.730;8.006;2023-08-12T01:39:51;100265.03;;;22.17;100.00
5522;BME280;2783;48.730;8.006;2023-08-12T01:42:18;100267.00;;;22.15;100.00
5522;BME280;2783;48.730;8.006;2023-08-12T01:44:45;100272.94;;;22.20;100.00
5522;BME280;2783;48.730;8.006;2023-08-12T01:47:11;100265.88;;;22.17;100.00
5522;BME280;2783;48.730;8.006;2023-08-12T01:49:36;100263.47;;;22.26;100.00
5522;BME280;2783;48.730;8.006;2023-08-12T01:52:02;100259.03;;;22.25;100.00
5522;BME280;2783;48.730;8.006;2023-08-12T01:54:28;100270.09;;;22.22;100.00
5522;BME280;2783;48.730;8.006;2023-08-12T01:57:02;100260.25;;;22.21;100.00
5522;BME280;2783;48.730;8.006;2023-08-12T01:59:36;100250.38;;;22.19;100.00
5522;BME280;2783;48.730;8.006;2023-08-12T02:02:02;100259.38;;;22.20;100.00
5522;BME280;2783;48.730;8.006;2023-08-12T02:04:28;100255.69;;;22.21;100.00
5522;BME280;2783;48.730;8.006;2023-08-12T02:06:54;100256.78;;;22.18;100.00
5522;BME280;2783;48.730;8.006;2023-08-12T02:09:21;100251.00;;;22.23;100.00
5522;BME280;2783;48.730;8.006;2023-08-12T02:11:48;100256.44;;;22.23;100.00
5522;BME280;2783;48.730;8.006;2023-08-12T02:14:13;100249.50;;;22.19;100.00
5522;BME280;2783;48.730;8.006;2023-08-12T02:16:39;100263.56;;;22.24;100.00
5522;BME280;2783;48.730;8.006;2023-08-12T02:19:04;100260.78;;;22.26;100.00
5522;BME280;2783;48.730;8.006;2023-08-12T02:21:30;100248.06;;;22.26;100.00
5522;BME280;2783;48.730;8.006;2023-08-12T02:23:55;100246.63;;;22.33;100.00
5522;BME280;2783;48.730;8.006;2023-08-12T02:26:20;100244.66;;;22.35;100.00
5522;BME280;2783;48.730;8.006;2023-08-12T02:28:46;100247.81;;;22.29;100.00
5522;BME280;2783;48.730;8.006;2023-08-12T02:31:11;100244.50;;;22.26;100.00
5522;BME280;2783;48.730;8.006;2023-08-12T02:33:37;100244.59;;;22.24;100.00
5522;BME280;2783;48.730;8.006;2023-08-12T02:36:02;100243.88;;;22.22;100.00
5522;BME280;2783;48.730;8.006;2023-08-12T02:38:28;100232.03;;;22.23;100.00
5522;BME280;2783;48.730;8.006;2023-08-12T02:40:53;100223.41;;;22.18;100.00
5522;BME280;2783;48.730;8.006;2023-08-12T02:43:19;100229.56;;;22.20;100.00
5522;BME280;2783;48.730;8.006;2023-08-12T02:45:44;100221.31;;;22.22;100.00
5522;BME280;2783;48.730;8.006;2023-08-12T02:48:10;100219.59;;;22.21;100.00
5522;BME280;2783;48.730;8.006;2023-08-12T02:50:36;100220.44;;;22.21;100.00
5522;BME280;2783;48.730;8.006;2023-08-12T02:53:02;100211.69;;;22.17;100.00
5522;BME280;2783;48.730;8.006;2023-08-12T02:55:28;100215.28;;;22.18;100.00
5522;BME280;2783;48.730;8.006;2023-08-12T02:57:54;100213.56;;;22.17;100.00
5522;BME280;2783;48.730;8.006;2023-08-12T03:00:19;100205.66;;;22.14;100.00
5522;BME280;2783;48.730;8.006;2023-08-12T03:02:45;100205.75;;;22.12;100.00
5522;BME280;2783;48.730;8.006;2023-08-12T03:05:10;100217.47;;;22.13;100.00
5522;BME280;2783;48.730;8.006;2023-08-12T03:07:35;100224.63;;;22.14;100.00
5522;BME280;2783;48.730;8.006;2023-08-12T03:10:01;100226.34;;;22.15;100.00
5522;BME280;2783;48.730;8.006;2023-08-12T03:12:26;100232.16;;;22.22;100.00
5522;BME280;2783;48.730;8.006;2023-08-12T03:14:52;100228.34;;;22.24;100.00
5522;BME280;2783;48.730;8.006;2023-08-12T03:17:17;100238.22;;;22.25;100.00
5522;BME280;2783;48.730;8.006;2023-08-12T03:19:43;100237.34;;;22.25;100.00
5522;BME280;2783;48.730;8.006;2023-08-12T03:22:08;100218.25;;;22.26;100.00
5522;BME280;2783;48.730;8.006;2023-08-12T03:24:34;100202.63;;;22.30;100.00
5522;BME280;2783;48.730;8.006;2023-08-12T03:26:59;100207.41;;;22.26;100.00
5522;BME280;2783;48.730;8.006;2023-08-12T03:29:25;100205.69;;;22.25;100.00
5522;BME280;2783;48.730;8.006;2023-08-12T03:31:50;100199.16;;;22.28;100.00
5522;BME280;2783;48.730;8.006;2023-08-12T03:34:15;100191.41;;;22.34;100.00
5522;BME280;2783;48.730;8.006;2023-08-12T03:36:41;100190.44;;;22.35;100.00
5522;BME280;2783;48.730;8.006;2023-08-12T03:39:07;100197.81;;;22.33;100.00
5522;BME280;2783;48.730;8.006;2023-08-12T03:41:32;100192.78;;;22.29;100.00
5522;BME280;2783;48.730;8.006;2023-08-12T03:43:58;100206.66;;;22.24;100.00
5522;BME280;2783;48.730;8.006;2023-08-12T03:46:23;100205.53;;;22.15;100.00
5522;BME280;2783;48.730;8.006;2023-08-12T03:48:48;100217.72;;;22.10;100.00
5522;BME280;2783;48.730;8.006;2023-08-12T03:51:14;100216.84;;;22.09;100.00
5522;BME280;2783;48.730;8.006;2023-08-12T03:53:39;100221.41;;;22.09;100.00
5522;BME280;2783;48.730;8.006;2023-08-12T03:56:05;100205.16;;;22.09;100.00
5522;BME280;2783;48.730;8.006;2023-08-12T03:58:30;100196.03;;;22.10;100.00
5522;BME280;2783;48.730;8.006;2023-08-12T04:00:56;100192.31;;;22.11;100.00
5522;BME280;2783;48.730;8.006;2023-08-12T04:03:21;100206.63;;;22.13;100.00
5522;BME280;2783;48.730;8.006;2023-08-12T04:05:49;100214.75;;;22.13;100.00
5522;BME280;2783;48.730;8.006;2023-08-12T04:08:17;100222.88;;;22.13;100.00
5522;BME280;2783;48.730;8.006;2023-08-12T04:10:46;100227.22;;;22.15;100.00
5522;BME280;2783;48.730;8.006;2023-08-12T04:13:13;100222.75;;;22.14;100.00
5522;BME280;2783;48.730;8.006;2023-08-12T04:15:39;100210.97;;;22.15;100.00
5522;BME280;2783;48.730;8.006;2023-08-12T04:18:05;100193.84;;;22.15;100.00
5522;BME280;2783;48.730;8.006;2023-08-12T04:20:30;100183.63;;;22.18;100.00
5522;BME280;2783;48.730;8.006;2023-08-12T04:22:56;100189.78;;;22.21;100.00
5522;BME280;2783;48.730;8.006;2023-08-12T04:25:21;100195.53;;;22.16;100.00
5522;BME280;2783;48.730;8.006;2023-08-12T04:27:47;100193.19;;;22.11;100.00
5522;BME280;2783;48.730;8.006;2023-08-12T04:30:15;100193.44;;;22.08;100.00
5522;BME280;2783;48.730;8.006;2023-08-12T04:32:41;100200.94;;;22.05;100.00
5522;BME280;2783;48.730;8.006;2023-08-12T04:35:06;100199.34;;;22.02;100.00
5522;BME280;2783;48.730;8.006;2023-08-12T04:37:32;100195.63;;;22.03;100.00
5522;BME280;2783;48.730;8.006;2023-08-12T04:39:58;100193.69;;;22.05;100.00
5522;BME280;2783;48.730;8.006;2023-08-12T04:42:23;100191.69;;;22.07;100.00
5522;BME280;2783;48.730;8.006;2023-08-12T04:44:49;100191.59;;;22.09;100.00
5522;BME280;2783;48.730;8.006;2023-08-12T04:47:15;100184.19;;;22.11;100.00
5522;BME280;2783;48.730;8.006;2023-08-12T04:49:40;100178.56;;;22.14;100.00
5522;BME280;2783;48.730;8.006;2023-08-12T04:52:06;100174.00;;;22.14;100.00
5522;BME280;2783;48.730;8.006;2023-08-12T04:54:32;100180.41;;;22.13;100.00
5522;BME280;2783;48.730;8.006;2023-08-12T04:56:57;100187.09;;;22.21;100.00
5522;BME280;2783;48.730;8.006;2023-08-12T04:59:24;100188.69;;;22.23;100.00
5522;BME280;2783;48.730;8.006;2023-08-12T05:01:50;100184.88;;;22.26;100.00
5522;BME280;2783;48.730;8.006;2023-08-12T05:04:15;100177.47;;;22.28;100.00
5522;BME280;2783;48.730;8.006;2023-08-12T05:06:40;100179.22;;;22.29;100.00
5522;BME280;2783;48.730;8.006;2023-08-12T05:09:06;100180.06;;;22.29;100.00
5522;BME280;2783;48.730;8.006;2023-08-12T05:11:31;100183.53;;;22.31;100.00
5522;BME280;2783;48.730;8.006;2023-08-12T05:13:57;100177.84;;;22.34;100.00
5522;BME280;2783;48.730;8.006;2023-08-12T05:16:22;100174.69;;;22.40;100.00
5522;BME280;2783;48.730;8.006;2023-08-12T05:18:47;100169.00;;;22.43;100.00
5522;BME280;2783;48.730;8.006;2023-08-12T05:21:13;100181.13;;;22.50;100.00
5522;BME280;2783;48.730;8.006;2023-08-12T05:23:38;100179.13;;;22.52;100.00
5522;BME280;2783;48.730;8.006;2023-08-12T05:26:04;100177.94;;;22.56;100.00
5522;BME280;2783;48.730;8.006;2023-08-12T05:28:29;100183.88;;;22.61;100.00
5522;BME280;2783;48.730;8.006;2023-08-12T05:30:54;100180.53;;;22.58;100.00
5522;BME280;2783;48.730;8.006;2023-08-12T05:33:21;100188.63;;;22.47;100.00
5522;BME280;2783;48.730;8.006;2023-08-12T05:35:50;100185.28;;;22.43;100.00
5522;BME280;2783;48.730;8.006;2023-08-12T05:38:16;100183.81;;;22.50;100.00
5522;BME280;2783;48.730;8.006;2023-08-12T05:40:42;100157.41;;;22.41;100.00
5522;BME280;2783;48.730;8.006;2023-08-12T05:43:07;100184.81;;;22.60;100.00
5522;BME280;2783;48.730;8.006;2023-08-12T05:45:33;100194.22;;;22.67;100.00
5522;BME280;2783;48.730;8.006;2023-08-12T05:47:59;100188.31;;;22.84;100.00
5522;BME280;2783;48.730;8.006;2023-08-12T05:50:24;100194.97;;;23.02;100.00
5522;BME280;2783;48.730;8.006;2023-08-12T05:52:49;100187.56;;;23.37;100.00
5522;BME280;2783;48.730;8.006;2023-08-12T05:55:15;100183.81;;;23.61;100.00
5522;BME280;2783;48.730;8.006;2023-08-12T05:57:40;100190.81;;;23.63;100.00
5522;BME280;2783;48.730;8.006;2023-08-12T06:00:06;100195.53;;;23.61;100.00
5522;BME280;2783;48.730;8.006;2023-08-12T06:02:32;100189.81;;;23.64;100.00
5522;BME280;2783;48.730;8.006;2023-08-12T06:04:57;100194.03;;;23.68;100.00
5522;BME280;2783;48.730;8.006;2023-08-12T06:07:23;100196.34;;;23.73;100.00
5522;BME280;2783;48.730;8.006;2023-08-12T06:09:49;100193.13;;;23.79;100.00
5522;BME280;2783;48.730;8.006;2023-08-12T06:12:16;100195.81;;;23.90;100.00
5522;BME280;2783;48.730;8.006;2023-08-12T06:14:41;100198.75;;;23.98;100.00
5522;BME280;2783;48.730;8.006;2023-08-12T06:17:07;100180.81;;;24.06;100.00
5522;BME280;2783;48.730;8.006;2023-08-12T06:19:32;100179.25;;;24.24;100.00
5522;BME280;2783;48.730;8.006;2023-08-12T06:21:58;100175.94;;;24.41;100.00
5522;BME280;2783;48.730;8.006;2023-08-12T06:24:23;100181.06;;;24.65;100.00
5522;BME280;2783;48.730;8.006;2023-08-12T06:26:49;100185.38;;;24.88;98.18
5522;BME280;2783;48.730;8.006;2023-08-12T06:29:14;100183.56;;;24.98;95.81
5522;BME280;2783;48.730;8.006;2023-08-12T06:31:40;100191.63;;;25.09;95.27
5522;BME280;2783;48.730;8.006;2023-08-12T06:34:05;100197.22;;;25.17;95.29
5522;BME280;2783;48.730;8.006;2023-08-12T06:36:30;100195.03;;;25.32;95.96
5522;BME280;2783;48.730;8.006;2023-08-12T06:38:56;100182.78;;;25.56;93.57
5522;BME280;2783;48.730;8.006;2023-08-12T06:41:21;100183.09;;;25.72;91.98
5522;BME280;2783;48.730;8.006;2023-08-12T06:43:47;100188.38;;;25.83;91.90
5522;BME280;2783;48.730;8.006;2023-08-12T06:46:12;100187.69;;;26.01;90.78
5522;BME280;2783;48.730;8.006;2023-08-12T06:48:37;100181.28;;;26.21;89.25
5522;BME280;2783;48.730;8.006;2023-08-12T06:51:03;100180.38;;;26.49;87.11
5522;BME280;2783;48.730;8.006;2023-08-12T06:53:35;100190.53;;;26.56;86.00
5522;BME280;2783;48.730;8.006;2023-08-12T06:56:01;100188.78;;;26.65;86.11
5522;BME280;2783;48.730;8.006;2023-08-12T06:58:26;100188.53;;;26.68;85.78
5522;BME280;2783;48.730;8.006;2023-08-12T07:00:52;100188.53;;;26.68;85.99
5522;BME280;2783;48.730;8.006;2023-08-12T07:03:18;100182.34;;;26.66;85.97
5522;BME280;2783;48.730;8.006;2023-08-12T07:05:44;100178.59;;;26.57;86.26
5522;BME280;2783;48.730;8.006;2023-08-12T07:08:09;100185.69;;;26.41;86.05
5522;BME280;2783;48.730;8.006;2023-08-12T07:10:38;100185.53;;;26.33;86.24
5522;BME280;2783;48.730;8.006;2023-08-12T07:13:04;100186.81;;;26.48;86.74
5522;BME280;2783;48.730;8.006;2023-08-12T07:15:29;100187.34;;;26.80;86.46
5522;BME280;2783;48.730;8.006;2023-08-12T07:17:55;100188.91;;;27.19;84.71
5522;BME280;2783;48.730;8.006;2023-08-12T07:20:20;100205.84;;;27.32;82.88
5522;BME280;2783;48.730;8.006;2023-08-12T07:22:46;100214.44;;;27.37;82.42
5522;BME280;2783;48.730;8.006;2023-08-12T07:25:11;100212.13;;;27.42;81.72
5522;BME280;2783;48.730;8.006;2023-08-12T07:27:37;100202.75;;;27.45;82.60
5522;BME280;2783;48.730;8.006;2023-08-12T07:30:02;100198.06;;;27.82;82.86
5522;BME280;2783;48.730;8.006;2023-08-12T07:32:28;100200.38;;;28.21;79.94
5522;BME280;2783;48.730;8.006;2023-08-12T07:34:53;100197.22;;;28.34;77.80
5522;BME280;2783;48.730;8.006;2023-08-12T07:37:19;100201.28;;;28.48;76.31
5522;BME280;2783;48.730;8.006;2023-08-12T07:39:45;100192.03;;;28.48;75.21
5522;BME280;2783;48.730;8.006;2023-08-12T07:42:10;100194.38;;;28.43;77.78
5522;BME280;2783;48.730;8.006;2023-08-12T07:44:36;100197.94;;;28.36;77.25
5522;BME280;2783;48.730;8.006;2023-08-12T07:47:01;100180.50;;;28.19;77.59
5522;BME280;2783;48.730;8.006;2023-08-12T07:49:27;100195.03;;;28.02;76.78
5522;BME280;2783;48.730;8.006;2023-08-12T07:51:52;100195.28;;;28.09;78.28
5522;BME280;2783;48.730;8.006;2023-08-12T07:54:17;100194.44;;;28.08;77.80
5522;BME280;2783;48.730;8.006;2023-08-12T07:56:43;100193.03;;;28.04;77.93
5522;BME280;2783;48.730;8.006;2023-08-12T07:59:08;100176.69;;;28.12;77.20
5522;BME280;2783;48.730;8.006;2023-08-12T08:01:33;100169.63;;;28.27;76.76
5522;BME280;2783;48.730;8.006;2023-08-12T08:03:59;100176.72;;;28.56;76.03
5522;BME280;2783;48.730;8.006;2023-08-12T08:06:24;100170.84;;;28.68;75.74
5522;BME280;2783;48.730;8.006;2023-08-12T08:08:50;100173.66;;;29.10;71.70
5522;BME280;2783;48.730;8.006;2023-08-12T08:11:15;100169.47;;;29.73;69.97
5522;BME280;2783;48.730;8.006;2023-08-12T08:13:41;100158.88;;;29.86;68.24
5522;BME280;2783;48.730;8.006;2023-08-12T08:16:06;100158.72;;;29.96;67.86
5522;BME280;2783;48.730;8.006;2023-08-12T08:18:31;100158.00;;;29.70;67.35
5522;BME280;2783;48.730;8.006;2023-08-12T08:20:57;100159.41;;;29.90;68.55
5522;BME280;2783;48.730;8.006;2023-08-12T08:23:22;100166.28;;;30.58;66.22
5522;BME280;2783;48.730;8.006;2023-08-12T08:25:48;100169.56;;;31.32;62.44
5522;BME280;2783;48.730;8.006;2023-08-12T08:28:13;100176.69;;;31.57;60.33
5522;BME280;2783;48.730;8.006;2023-08-12T08:30:38;100171.09;;;32.04;59.16
5522;BME280;2783;48.730;8.006;2023-08-12T08:33:05;100183.38;;;32.61;59.05
5522;BME280;2783;48.730;8.006;2023-08-12T08:35:30;100171.00;;;33.09;54.89
5522;BME280;2783;48.730;8.006;2023-08-12T08:37:55;100174.28;;;33.63;52.08
5522;BME280;2783;48.730;8.006;2023-08-12T08:40:21;100162.28;;;34.06;51.85
5522;BME280;2783;48.730;8.006;2023-08-12T08:42:51;100171.50;;;33.92;51.13
5522;BME280;2783;48.730;8.006;2023-08-12T08:45:17;100158.44;;;33.21;51.79
5522;BME280;2783;48.730;8.006;2023-08-12T08:47:43;100162.13;;;32.47;54.02
5522;BME280;2783;48.730;8.006;2023-08-12T08:50:10;100185.00;;;31.72;57.33
5522;BME280;2783;48.730;8.006;2023-08-12T08:52:36;100189.38;;;31.12;58.66
5522;BME280;2783;48.730;8.006;2023-08-12T08:55:03;100196.00;;;30.78;60.30
5522;BME280;2783;48.730;8.006;2023-08-12T08:57:29;100198.06;;;30.44;61.88
5522;BME280;2783;48.730;8.006;2023-08-12T08:59:55;100195.44;;;30.11;62.77
5522;BME280;2783;48.730;8.006;2023-08-12T09:02:20;100203.63;;;29.87;62.50
5522;BME280;2783;48.730;8.006;2023-08-12T09:04:47;100196.06;;;29.89;64.26
5522;BME280;2783;48.730;8.006;2023-08-12T09:07:13;100189.97;;;30.67;60.83
5522;BME280;2783;48.730;8.006;2023-08-12T09:09:44;100192.69;;;31.54;58.98
5522;BME280;2783;48.730;8.006;2023-08-12T09:12:13;100196.38;;;31.69;57.10
5522;BME280;2783;48.730;8.006;2023-08-12T09:14:39;100184.78;;;31.51;57.53
5522;BME280;2783;48.730;8.006;2023-08-12T09:17:04;100182.13;;;31.27;58.23
5522;BME280;2783;48.730;8.006;2023-08-12T09:19:30;100175.94;;;31.25;59.64
5522;BME280;2783;48.730;8.006;2023-08-12T09:21:55;100176.38;;;31.75;59.52
5522;BME280;2783;48.730;8.006;2023-08-12T09:24:27;100176.09;;;32.46;56.36
5522;BME280;2783;48.730;8.006;2023-08-12T09:26:56;100166.72;;;33.06;54.11
5522;BME280;2783;48.730;8.006;2023-08-12T09:29:35;100171.06;;;33.74;51.47
5522;BME280;2783;48.730;8.006;2023-08-12T09:32:13;100175.75;;;33.94;51.88
5522;BME280;2783;48.730;8.006;2023-08-12T09:34:50;100178.72;;;33.43;50.96
5522;BME280;2783;48.730;8.006;2023-08-12T09:37:17;100187.97;;;32.83;53.80
5522;BME280;2783;48.730;8.006;2023-08-12T09:39:42;100187.28;;;32.67;51.27
5522;BME280;2783;48.730;8.006;2023-08-12T09:42:09;100200.16;;;32.52;54.82
5522;BME280;2783;48.730;8.006;2023-08-12T09:44:36;100180.38;;;32.48;56.67
5522;BME280;2783;48.730;8.006;2023-08-12T09:47:01;100178.97;;;33.04;55.80
5522;BME280;2783;48.730;8.006;2023-08-12T09:49:28;100166.69;;;33.65;53.74
5522;BME280;2783;48.730;8.006;2023-08-12T09:51:54;100159.31;;;34.28;52.70
5522;BME280;2783;48.730;8.006;2023-08-12T09:54:20;100157.81;;;34.47;50.50
5522;BME280;2783;48.730;8.006;2023-08-12T09:56:48;100171.22;;;34.29;49.10
5522;BME280;2783;48.730;8.006;2023-08-12T09:59:18;100177.69;;;34.36;48.29
5522;BME280;2783;48.730;8.006;2023-08-12T10:01:45;100174.19;;;34.70;49.22
5522;BME280;2783;48.730;8.006;2023-08-12T10:04:11;100165.53;;;35.07;47.34
5522;BME280;2783;48.730;8.006;2023-08-12T10:06:39;100160.03;;;35.13;47.21
5522;BME280;2783;48.730;8.006;2023-08-12T10:09:06;100177.09;;;35.17;47.90
5522;BME280;2783;48.730;8.006;2023-08-12T10:11:34;100186.69;;;35.21;49.04
5522;BME280;2783;48.730;8.006;2023-08-12T10:14:03;100198.44;;;34.95;47.62
5522;BME280;2783;48.730;8.006;2023-08-12T10:16:29;100200.69;;;34.01;49.84
5522;BME280;2783;48.730;8.006;2023-08-12T10:18:56;100223.19;;;33.10;51.23
5522;BME280;2783;48.730;8.006;2023-08-12T10:21:22;100243.69;;;32.03;56.38
5522;BME280;2783;48.730;8.006;2023-08-12T10:23:48;100250.56;;;31.14;57.29
5522;BME280;2783;48.730;8.006;2023-08-12T10:26:15;100248.50;;;30.35;60.96
5522;BME280;2783;48.730;8.006;2023-08-12T10:28:42;100236.03;;;29.91;66.06
5522;BME280;2783;48.730;8.006;2023-08-12T10:31:08;100237.25;;;29.55;74.27
5522;BME280;2783;48.730;8.006;2023-08-12T10:33:40;100243.06;;;29.18;78.06
5522;BME280;2783;48.730;8.006;2023-08-12T10:36:07;100209.69;;;28.72;79.93
5522;BME280;2783;48.730;8.006;2023-08-12T10:38:33;100203.16;;;28.65;81.96
5522;BME280;2783;48.730;8.006;2023-08-12T10:41:22;100204.00;;;28.65;83.40
5522;BME280;2783;48.730;8.006;2023-08-12T10:43:55;100194.34;;;29.38;83.15
5522;BME280;2783;48.730;8.006;2023-08-12T10:46:32;100189.66;;;30.46;75.68
5522;BME280;2783;48.730;8.006;2023-08-12T10:49:08;100181.72;;;31.46;69.62
5522;BME280;2783;48.730;8.006;2023-08-12T10:51:50;100188.63;;;32.03;66.56
5522;BME280;2783;48.730;8.006;2023-08-12T10:54:16;100195.13;;;32.10;67.64
5522;BME280;2783;48.730;8.006;2023-08-12T11:02:17;100185.75;;;32.64;61.94
5522;BME280;2783;48.730;8.006;2023-08-12T11:04:43;100195.84;;;32.49;62.67
5522;BME280;2783;48.730;8.006;2023-08-12T11:07:19;100201.47;;;32.33;65.03
5522;BME280;2783;48.730;8.006;2023-08-12T11:09:45;100204.66;;;31.99;65.92
5522;BME280;2783;48.730;8.006;2023-08-12T11:12:11;100204.53;;;31.54;68.30
5522;BME280;2783;48.730;8.006;2023-08-12T11:14:49;100204.81;;;31.67;70.04
5522;BME280;2783;48.730;8.006;2023-08-12T11:17:18;100202.34;;;31.50;70.92
5522;BME280;2783;48.730;8.006;2023-08-12T11:19:43;100209.28;;;31.22;71.23
5522;BME280;2783;48.730;8.006;2023-08-12T11:22:09;100217.28;;;30.84;71.60
5522;BME280;2783;48.730;8.006;2023-08-12T11:24:40;100211.78;;;30.60;73.85
5522;BME280;2783;48.730;8.006;2023-08-12T11:27:09;100209.88;;;30.45;74.43
5522;BME280;2783;48.730;8.006;2023-08-12T11:29:36;100203.88;;;30.41;74.91
5522;BME280;2783;48.730;8.006;2023-08-12T11:32:02;100202.53;;;30.37;74.24
5522;BME280;2783;48.730;8.006;2023-08-12T11:34:27;100201.66;;;30.45;74.76
5522;BME280;2783;48.730;8.006;2023-08-12T11:36:54;100189.81;;;30.44;76.00
5522;BME280;2783;48.730;8.006;2023-08-12T11:39:19;100203.34;;;30.94;74.50
5522;BME280;2783;48.730;8.006;2023-08-12T11:41:46;100195.47;;;31.76;71.38
5522;BME280;2783;48.730;8.006;2023-08-12T11:44:15;100195.09;;;32.78;66.96
5522;BME280;2783;48.730;8.006;2023-08-12T11:46:41;100196.38;;;33.33;66.00
5522;BME280;2783;48.730;8.006;2023-08-12T11:49:06;100190.13;;;33.90;62.35
5522;BME280;2783;48.730;8.006;2023-08-12T11:51:32;100191.38;;;34.02;57.67
5522;BME280;2783;48.730;8.006;2023-08-12T11:53:58;100183.66;;;33.83;59.52
5522;BME280;2783;48.730;8.006;2023-08-12T11:56:24;100184.28;;;33.34;58.16
5522;BME280;2783;48.730;8.006;2023-08-12T11:58:51;100179.84;;;33.04;61.44
5522;BME280;2783;48.730;8.006;2023-08-12T12:01:20;100172.50;;;33.11;60.14
5522;BME280;2783;48.730;8.006;2023-08-12T12:03:52;100173.94;;;33.07;60.07
5522;BME280;2783;48.730;8.006;2023-08-12T12:06:28;100177.06;;;33.33;59.26
5522;BME280;2783;48.730;8.006;2023-08-12T12:08:54;100176.59;;;33.15;59.65
5522;BME280;2783;48.730;8.006;2023-08-12T12:11:19;100179.44;;;33.51;58.35
5522;BME280;2783;48.730;8.006;2023-08-12T12:13:45;100175.28;;;33.55;58.53
5522;BME280;2783;48.730;8.006;2023-08-12T12:16:12;100177.38;;;33.89;58.67
5522;BME280;2783;48.730;8.006;2023-08-12T12:18:38;100165.81;;;33.64;57.96
5522;BME280;2783;48.730;8.006;2023-08-12T12:21:03;100166.31;;;33.38;59.34
5522;BME280;2783;48.730;8.006;2023-08-12T12:23:29;100169.56;;;33.57;58.26
5522;BME280;2783;48.730;8.006;2023-08-12T12:25:59;100163.16;;;33.71;57.76
5522;BME280;2783;48.730;8.006;2023-08-12T12:28:25;100173.72;;;34.03;57.75
5522;BME280;2783;48.730;8.006;2023-08-12T12:30:50;100169.28;;;34.44;55.54
5522;BME280;2783;48.730;8.006;2023-08-12T12:33:16;100164.31;;;34.61;55.35
5522;BME280;2783;48.730;8.006;2023-08-12T12:35:41;100162.75;;;35.00;55.56
5522;BME280;2783;48.730;8.006;2023-08-12T12:38:07;100163.56;;;35.35;51.26
5522;BME280;2783;48.730;8.006;2023-08-12T12:40:32;100159.31;;;34.98;52.69
5522;BME280;2783;48.730;8.006;2023-08-12T12:42:58;100168.34;;;35.13;51.53
5522;BME280;2783;48.730;8.006;2023-08-12T12:45:24;100177.22;;;34.81;50.66
5522;BME280;2783;48.730;8.006;2023-08-12T12:47:50;100186.50;;;34.25;54.02
5522;BME280;2783;48.730;8.006;2023-08-12T12:50:15;100177.97;;;34.20;52.89
5522;BME280;2783;48.730;8.006;2023-08-12T12:52:42;100174.25;;;34.76;52.47
5522;BME280;2783;48.730;8.006;2023-08-12T12:55:08;100166.94;;;34.69;52.83
5522;BME280;2783;48.730;8.006;2023-08-12T12:57:33;100180.19;;;34.10;55.42
5522;BME280;2783;48.730;8.006;2023-08-12T12:59:59;100165.59;;;33.80;57.10
5522;BME280;2783;48.730;8.006;2023-08-12T13:02:25;100168.00;;;33.39;56.35
5522;BME280;2783;48.730;8.006;2023-08-12T13:04:52;100160.63;;;33.11;55.09
5522;BME280;2783;48.730;8.006;2023-08-12T13:07:17;100160.03;;;32.86;57.60
5522;BME280;2783;48.730;8.006;2023-08-12T13:09:43;100164.66;;;32.57;56.25